Terminal Aerodrome Forecast
Issued by NWS

Home | Current Version | Previous Version | Graphics & Text | Print | Product List | Glossary On
Versions: 1 2 3 4 5 6 7 8 9 10 11 12 13 14 15 16 17
000
FTUS42 KMHX 280749 AAA
TAFPGV
TAF AMD
KPGV 280749Z 2808/2906 00000KT 3SM BR OVC005
     FM281400 03007KT P6SM VCSH BKN035
     FM290100 VRB04KT P6SM BKN050
      AMD LTD TO CLD VIS AND WIND=

USA.gov is the U.S. government's official web portal to all federal, state and local government web resources and services.